sensor_id;sensor_type;location;lat;lon;timestamp;pressure;altitude;pressure_sealevel;temperature;humidity
72794;BME280;63436;26.334;50.194;2022-11-20T00:01:26;101881.16;;;23.16;33.76
72794;BME280;63436;26.334;50.194;2022-11-20T00:03:52;101886.03;;;22.52;34.46
72794;BME280;63436;26.334;50.194;2022-11-20T00:06:19;101886.72;;;22.98;34.21
72794;BME280;63436;26.334;50.194;2022-11-20T00:08:42;101887.00;;;22.92;33.98
72794;BME280;63436;26.334;50.194;2022-11-20T00:11:08;101888.15;;;22.78;33.93
72794;BME280;63436;26.334;50.194;2022-11-20T00:13:33;101889.73;;;23.31;33.23
72794;BME280;63436;26.334;50.194;2022-11-20T00:15:59;101900.84;;;22.00;34.47
72794;BME280;63436;26.334;50.194;2022-11-20T00:18:24;101897.22;;;22.26;34.12
72794;BME280;63436;26.334;50.194;2022-11-20T00:20:50;101901.46;;;21.91;35.15
72794;BME280;63436;26.334;50.194;2022-11-20T00:23:16;101902.48;;;21.64;35.59
72794;BME280;63436;26.334;50.194;2022-11-20T00:25:45;101899.06;;;21.48;35.99
72794;BME280;63436;26.334;50.194;2022-11-20T00:28:06;101890.33;;;21.85;35.36
72794;BME280;63436;26.334;50.194;2022-11-20T00:30:31;101891.67;;;22.63;34.12
72794;BME280;63436;26.334;50.194;2022-11-20T00:32:57;101893.74;;;22.36;34.61
72794;BME280;63436;26.334;50.194;2022-11-20T00:35:22;101893.67;;;22.76;34.38
72794;BME280;63436;26.334;50.194;2022-11-20T00:37:47;101893.10;;;22.11;35.13
72794;BME280;63436;26.334;50.194;2022-11-20T00:40:13;101892.69;;;22.31;35.27
72794;BME280;63436;26.334;50.194;2022-11-20T00:42:38;101895.45;;;21.49;36.83
72794;BME280;63436;26.334;50.194;2022-11-20T00:45:04;101903.31;;;22.39;35.75
72794;BME280;63436;26.334;50.194;2022-11-20T00:47:28;101902.74;;;21.84;36.34
72794;BME280;63436;26.334;50.194;2022-11-20T00:49:54;101906.20;;;22.42;35.52
72794;BME280;63436;26.334;50.194;2022-11-20T00:52:20;101908.83;;;22.26;35.37
72794;BME280;63436;26.334;50.194;2022-11-20T00:54:45;101902.71;;;22.31;35.25
72794;BME280;63436;26.334;50.194;2022-11-20T00:57:11;101905.52;;;22.15;35.26
72794;BME280;63436;26.334;50.194;2022-11-20T00:59:41;101895.01;;;22.87;34.02
72794;BME280;63436;26.334;50.194;2022-11-20T01:02:01;101897.16;;;22.45;33.90
72794;BME280;63436;26.334;50.194;2022-11-20T01:04:27;101894.85;;;22.04;34.16
72794;BME280;63436;26.334;50.194;2022-11-20T01:06:52;101890.95;;;22.37;33.56
72794;BME280;63436;26.334;50.194;2022-11-20T01:09:17;101887.04;;;22.62;33.19
72794;BME280;63436;26.334;50.194;2022-11-20T01:11:44;101880.90;;;21.86;34.07
72794;BME280;63436;26.334;50.194;2022-11-20T01:14:14;101873.97;;;23.22;32.46
72794;BME280;63436;26.334;50.194;2022-11-20T01:16:34;101878.01;;;22.95;32.40
72794;BME280;63436;26.334;50.194;2022-11-20T01:18:59;101877.06;;;22.65;32.49
72794;BME280;63436;26.334;50.194;2022-11-20T01:21:25;101879.61;;;22.55;32.55
72794;BME280;63436;26.334;50.194;2022-11-20T01:23:49;101878.88;;;22.95;32.22
72794;BME280;63436;26.334;50.194;2022-11-20T01:26:16;101889.29;;;22.19;33.59
72794;BME280;63436;26.334;50.194;2022-11-20T01:28:40;101885.65;;;22.31;33.75
72794;BME280;63436;26.334;50.194;2022-11-20T01:31:18;101882.89;;;21.80;34.57
72794;BME280;63436;26.334;50.194;2022-11-20T01:33:30;101882.53;;;21.88;34.66
72794;BME280;63436;26.334;50.194;2022-11-20T01:36:04;101883.47;;;21.98;34.61
72794;BME280;63436;26.334;50.194;2022-11-20T01:38:21;101889.68;;;22.08;34.63
72794;BME280;63436;26.334;50.194;2022-11-20T01:40:54;101889.62;;;22.30;34.30
72794;BME280;63436;26.334;50.194;2022-11-20T01:43:16;101892.12;;;21.78;35.01
72794;BME280;63436;26.334;50.194;2022-11-20T01:45:58;101896.57;;;22.03;34.80
72794;BME280;63436;26.334;50.194;2022-11-20T01:48:03;101897.13;;;22.14;34.66
72794;BME280;63436;26.334;50.194;2022-11-20T01:50:28;101900.71;;;22.04;34.80
72794;BME280;63436;26.334;50.194;2022-11-20T01:52:56;101900.55;;;22.19;34.66
72794;BME280;63436;26.334;50.194;2022-11-20T01:55:22;101896.44;;;22.64;34.01
72794;BME280;63436;26.334;50.194;2022-11-20T01:57:45;101895.75;;;22.10;34.65
72794;BME280;63436;26.334;50.194;2022-11-20T02:00:13;101894.67;;;21.65;34.57
72794;BME280;63436;26.334;50.194;2022-11-20T02:02:36;101898.07;;;22.40;34.21
72794;BME280;63436;26.334;50.194;2022-11-20T02:05:09;101900.13;;;22.84;33.70
72794;BME280;63436;26.334;50.194;2022-11-20T02:07:26;101901.07;;;21.71;35.17
72794;BME280;63436;26.334;50.194;2022-11-20T02:09:51;101901.08;;;22.22;34.81
72794;BME280;63436;26.334;50.194;2022-11-20T02:12:17;101898.50;;;22.09;34.63
72794;BME280;63436;26.334;50.194;2022-11-20T02:14:42;101896.99;;;21.82;35.10
72794;BME280;63436;26.334;50.194;2022-11-20T02:17:07;101898.74;;;22.39;34.51
72794;BME280;63436;26.334;50.194;2022-11-20T02:19:32;101905.26;;;22.56;34.40
72794;BME280;63436;26.334;50.194;2022-11-20T02:22:02;101908.36;;;22.20;34.63
72794;BME280;63436;26.334;50.194;2022-11-20T02:24:23;101909.35;;;22.26;34.85
72794;BME280;63436;26.334;50.194;2022-11-20T02:26:52;101912.00;;;22.31;34.91
72794;BME280;63436;26.334;50.194;2022-11-20T02:29:16;101915.59;;;22.20;35.00
72794;BME280;63436;26.334;50.194;2022-11-20T02:31:41;101920.11;;;22.10;35.05
72794;BME280;63436;26.334;50.194;2022-11-20T02:34:04;101921.36;;;22.29;35.22
72794;BME280;63436;26.334;50.194;2022-11-20T02:36:31;101926.34;;;21.41;36.60
72794;BME280;63436;26.334;50.194;2022-11-20T02:38:55;101925.43;;;21.43;36.56
72794;BME280;63436;26.334;50.194;2022-11-20T02:41:21;101929.22;;;21.01;36.63
72794;BME280;63436;26.334;50.194;2022-11-20T02:43:46;101932.83;;;20.85;37.11
72794;BME280;63436;26.334;50.194;2022-11-20T02:46:11;101935.27;;;20.36;37.52
72794;BME280;63436;26.334;50.194;2022-11-20T02:48:36;101938.62;;;19.90;38.02
72794;BME280;63436;26.334;50.194;2022-11-20T02:51:02;101937.85;;;20.74;36.88
72794;BME280;63436;26.334;50.194;2022-11-20T02:53:28;101937.14;;;21.14;36.44
72794;BME280;63436;26.334;50.194;2022-11-20T02:55:53;101938.40;;;21.21;36.31
72794;BME280;63436;26.334;50.194;2022-11-20T02:58:18;101938.07;;;21.22;36.37
72794;BME280;63436;26.334;50.194;2022-11-20T03:00:44;101944.72;;;21.33;36.63
72794;BME280;63436;26.334;50.194;2022-11-20T03:03:10;101947.03;;;21.25;37.04
72794;BME280;63436;26.334;50.194;2022-11-20T03:05:35;101949.74;;;21.29;36.41
72794;BME280;63436;26.334;50.194;2022-11-20T03:08:00;101957.96;;;21.73;35.82
72794;BME280;63436;26.334;50.194;2022-11-20T03:10:26;101957.06;;;21.69;35.87
72794;BME280;63436;26.334;50.194;2022-11-20T03:12:53;101960.32;;;20.57;37.37
72794;BME280;63436;26.334;50.194;2022-11-20T03:15:17;101960.30;;;21.03;36.70
72794;BME280;63436;26.334;50.194;2022-11-20T03:17:42;101963.60;;;20.62;37.30
72794;BME280;63436;26.334;50.194;2022-11-20T03:20:09;101969.22;;;21.25;36.04
72794;BME280;63436;26.334;50.194;2022-11-20T03:22:32;101971.90;;;20.93;36.85
72794;BME280;63436;26.334;50.194;2022-11-20T03:24:58;101976.48;;;21.43;36.10
72794;BME280;63436;26.334;50.194;2022-11-20T03:27:23;101978.17;;;21.00;36.19
72794;BME280;63436;26.334;50.194;2022-11-20T03:29:49;101976.17;;;21.77;35.78
72794;BME280;63436;26.334;50.194;2022-11-20T03:32:21;101971.47;;;21.92;35.72
72794;BME280;63436;26.334;50.194;2022-11-20T03:34:40;101978.76;;;21.45;36.42
72794;BME280;63436;26.334;50.194;2022-11-20T03:37:06;101984.06;;;20.46;37.86
72794;BME280;63436;26.334;50.194;2022-11-20T03:39:41;101984.26;;;20.98;37.33
72794;BME280;63436;26.334;50.194;2022-11-20T03:41:57;101987.85;;;21.27;37.01
72794;BME280;63436;26.334;50.194;2022-11-20T03:44:23;101987.33;;;21.07;37.07
72794;BME280;63436;26.334;50.194;2022-11-20T03:46:48;101982.33;;;21.69;36.03
72794;BME280;63436;26.334;50.194;2022-11-20T03:49:19;101985.56;;;21.55;36.22
72794;BME280;63436;26.334;50.194;2022-11-20T03:51:40;101982.39;;;21.78;35.69
72794;BME280;63436;26.334;50.194;2022-11-20T03:54:07;101983.97;;;21.87;35.27
72794;BME280;63436;26.334;50.194;2022-11-20T03:56:33;101988.29;;;21.19;36.20
72794;BME280;63436;26.334;50.194;2022-11-20T03:58:57;101992.13;;;21.60;36.01
72794;BME280;63436;26.334;50.194;2022-11-20T04:01:24;101987.48;;;22.13;35.40
72794;BME280;63436;26.334;50.194;2022-11-20T04:03:55;101991.40;;;21.64;35.89
72794;BME280;63436;26.334;50.194;2022-11-20T04:06:15;101986.75;;;21.84;35.76
72794;BME280;63436;26.334;50.194;2022-11-20T04:08:39;101984.84;;;22.04;35.52
72794;BME280;63436;26.334;50.194;2022-11-20T04:11:11;101985.38;;;22.16;34.88
72794;BME280;63436;26.334;50.194;2022-11-20T04:13:30;101986.92;;;22.01;35.24
72794;BME280;63436;26.334;50.194;2022-11-20T04:15:57;101994.00;;;22.78;34.49
72794;BME280;63436;26.334;50.194;2022-11-20T04:18:20;101998.99;;;22.36;34.76
72794;BME280;63436;26.334;50.194;2022-11-20T04:20:48;102004.60;;;22.02;35.56
72794;BME280;63436;26.334;50.194;2022-11-20T04:23:11;102008.32;;;21.82;36.35
72794;BME280;63436;26.334;50.194;2022-11-20T04:25:36;102011.63;;;21.96;36.02
72794;BME280;63436;26.334;50.194;2022-11-20T04:28:02;102014.99;;;21.89;36.08
72794;BME280;63436;26.334;50.194;2022-11-20T04:30:27;102015.53;;;21.99;36.39
72794;BME280;63436;26.334;50.194;2022-11-20T04:32:52;102019.29;;;22.27;36.09
72794;BME280;63436;26.334;50.194;2022-11-20T04:35:18;102025.55;;;22.12;36.37
72794;BME280;63436;26.334;50.194;2022-11-20T04:37:43;102027.15;;;22.59;35.53
72794;BME280;63436;26.334;50.194;2022-11-20T04:40:10;102028.50;;;22.33;36.30
72794;BME280;63436;26.334;50.194;2022-11-20T04:42:34;102033.76;;;22.00;36.48
72794;BME280;63436;26.334;50.194;2022-11-20T04:45:00;102034.92;;;22.77;35.65
72794;BME280;63436;26.334;50.194;2022-11-20T04:47:26;102033.38;;;22.09;36.50
72794;BME280;63436;26.334;50.194;2022-11-20T04:49:51;102033.87;;;22.28;36.14
72794;BME280;63436;26.334;50.194;2022-11-20T04:52:17;102038.05;;;22.18;36.61
72794;BME280;63436;26.334;50.194;2022-11-20T04:54:47;102037.84;;;22.27;36.59
72794;BME280;63436;26.334;50.194;2022-11-20T04:57:08;102043.98;;;22.76;35.76
72794;BME280;63436;26.334;50.194;2022-11-20T04:59:33;102047.03;;;23.53;34.82
72794;BME280;63436;26.334;50.194;2022-11-20T05:01:58;102046.33;;;22.76;35.65
72794;BME280;63436;26.334;50.194;2022-11-20T05:04:24;102042.27;;;22.99;35.29
72794;BME280;63436;26.334;50.194;2022-11-20T05:06:50;102052.80;;;23.70;34.53
72794;BME280;63436;26.334;50.194;2022-11-20T05:09:14;102053.19;;;23.11;35.00
72794;BME280;63436;26.334;50.194;2022-11-20T05:11:40;102055.11;;;22.10;36.75
72794;BME280;63436;26.334;50.194;2022-11-20T05:14:06;102050.61;;;22.56;36.84
72794;BME280;63436;26.334;50.194;2022-11-20T05:16:31;102049.11;;;22.50;36.95
72794;BME280;63436;26.334;50.194;2022-11-20T05:18:56;102048.07;;;22.40;37.04
72794;BME280;63436;26.334;50.194;2022-11-20T05:21:22;102053.49;;;23.39;35.84
72794;BME280;63436;26.334;50.194;2022-11-20T05:23:48;102048.69;;;23.46;35.79
72794;BME280;63436;26.334;50.194;2022-11-20T05:26:14;102046.42;;;24.04;35.16
72794;BME280;63436;26.334;50.194;2022-11-20T05:28:38;102051.31;;;23.36;36.55
72794;BME280;63436;26.334;50.194;2022-11-20T05:31:06;102043.22;;;24.02;35.72
72794;BME280;63436;26.334;50.194;2022-11-20T05:33:30;102049.93;;;23.58;36.34
72794;BME280;63436;26.334;50.194;2022-11-20T05:35:58;102041.91;;;23.89;36.01
72794;BME280;63436;26.334;50.194;2022-11-20T05:38:21;102049.03;;;23.23;36.93
72794;BME280;63436;26.334;50.194;2022-11-20T05:40:46;102050.06;;;24.09;35.87
72794;BME280;63436;26.334;50.194;2022-11-20T05:43:12;102053.19;;;24.16;35.80
72794;BME280;63436;26.334;50.194;2022-11-20T05:45:37;102056.18;;;23.78;36.56
72794;BME280;63436;26.334;50.194;2022-11-20T05:48:03;102056.01;;;24.03;36.12
72794;BME280;63436;26.334;50.194;2022-11-20T05:50:28;102045.75;;;24.42;35.43
72794;BME280;63436;26.334;50.194;2022-11-20T05:52:53;102049.21;;;24.71;35.05
72794;BME280;63436;26.334;50.194;2022-11-20T05:55:18;102047.86;;;25.17;33.85
72794;BME280;63436;26.334;50.194;2022-11-20T05:57:43;102047.71;;;24.81;34.29
72794;BME280;63436;26.334;50.194;2022-11-20T06:00:10;102046.81;;;25.86;33.06
72794;BME280;63436;26.334;50.194;2022-11-20T06:02:35;102050.12;;;24.73;34.42
72794;BME280;63436;26.334;50.194;2022-11-20T06:05:01;102049.57;;;24.59;34.95
72794;BME280;63436;26.334;50.194;2022-11-20T06:07:25;102050.00;;;25.40;34.05
72794;BME280;63436;26.334;50.194;2022-11-20T06:09:51;102050.32;;;24.66;34.92
72794;BME280;63436;26.334;50.194;2022-11-20T06:12:16;102055.44;;;24.87;34.68
72794;BME280;63436;26.334;50.194;2022-11-20T06:14:42;102054.25;;;23.89;36.35
72794;BME280;63436;26.334;50.194;2022-11-20T06:17:08;102053.18;;;24.05;36.39
72794;BME280;63436;26.334;50.194;2022-11-20T06:19:33;102046.63;;;24.24;36.41
72794;BME280;63436;26.334;50.194;2022-11-20T06:21:58;102038.89;;;24.36;35.99
72794;BME280;63436;26.334;50.194;2022-11-20T06:24:23;102040.18;;;25.19;35.67
72794;BME280;63436;26.334;50.194;2022-11-20T06:26:49;102036.17;;;24.06;36.40
72794;BME280;63436;26.334;50.194;2022-11-20T06:29:15;102033.33;;;25.00;34.94
72794;BME280;63436;26.334;50.194;2022-11-20T06:31:40;102035.67;;;25.16;34.07
72794;BME280;63436;26.334;50.194;2022-11-20T06:34:05;102037.34;;;25.19;34.27
72794;BME280;63436;26.334;50.194;2022-11-20T06:36:31;102033.22;;;25.06;34.78
72794;BME280;63436;26.334;50.194;2022-11-20T06:38:56;102023.75;;;26.05;33.08
72794;BME280;63436;26.334;50.194;2022-11-20T06:41:22;102025.24;;;26.31;33.07
72794;BME280;63436;26.334;50.194;2022-11-20T06:43:47;102023.15;;;24.67;34.63
72794;BME280;63436;26.334;50.194;2022-11-20T06:46:14;102018.52;;;26.06;33.70
72794;BME280;63436;26.334;50.194;2022-11-20T06:48:38;102014.09;;;23.83;36.24
72794;BME280;63436;26.334;50.194;2022-11-20T06:51:04;102013.43;;;25.66;34.30
72794;BME280;63436;26.334;50.194;2022-11-20T06:53:28;102004.80;;;25.46;34.18
72794;BME280;63436;26.334;50.194;2022-11-20T06:55:56;101999.95;;;25.89;34.03
72794;BME280;63436;26.334;50.194;2022-11-20T06:58:19;102002.96;;;25.54;34.16
72794;BME280;63436;26.334;50.194;2022-11-20T07:00:44;102006.86;;;25.67;34.06
72794;BME280;63436;26.334;50.194;2022-11-20T07:03:11;102000.79;;;26.27;33.38
72794;BME280;63436;26.334;50.194;2022-11-20T07:05:36;102003.70;;;25.31;34.50
72794;BME280;63436;26.334;50.194;2022-11-20T07:08:00;101998.62;;;25.95;33.12
72794;BME280;63436;26.334;50.194;2022-11-20T07:10:26;101990.34;;;26.05;33.07
72794;BME280;63436;26.334;50.194;2022-11-20T07:12:52;101990.15;;;25.56;33.72
72794;BME280;63436;26.334;50.194;2022-11-20T07:15:17;101980.02;;;24.42;35.94
72794;BME280;63436;26.334;50.194;2022-11-20T07:17:42;101976.28;;;26.48;32.96
72794;BME280;63436;26.334;50.194;2022-11-20T07:20:09;101977.21;;;26.96;32.33
72794;BME280;63436;26.334;50.194;2022-11-20T07:22:33;101973.25;;;25.22;33.97
72794;BME280;63436;26.334;50.194;2022-11-20T07:24:59;101969.19;;;26.96;31.80
72794;BME280;63436;26.334;50.194;2022-11-20T07:27:24;101967.53;;;25.87;33.05
72794;BME280;63436;26.334;50.194;2022-11-20T07:29:50;101966.29;;;26.47;32.67
72794;BME280;63436;26.334;50.194;2022-11-20T07:32:16;101956.94;;;25.62;33.33
72794;BME280;63436;26.334;50.194;2022-11-20T07:34:41;101951.79;;;26.07;33.36
72794;BME280;63436;26.334;50.194;2022-11-20T07:37:07;101950.33;;;26.23;32.22
72794;BME280;63436;26.334;50.194;2022-11-20T07:39:33;101955.07;;;25.86;32.91
72794;BME280;63436;26.334;50.194;2022-11-20T07:41:58;101947.37;;;26.25;32.96
72794;BME280;63436;26.334;50.194;2022-11-20T07:44:24;101944.14;;;26.02;32.37
72794;BME280;63436;26.334;50.194;2022-11-20T07:46:50;101936.09;;;25.95;32.79
72794;BME280;63436;26.334;50.194;2022-11-20T07:49:15;101931.22;;;24.72;33.70
72794;BME280;63436;26.334;50.194;2022-11-20T07:51:41;101930.69;;;26.70;32.08
72794;BME280;63436;26.334;50.194;2022-11-20T07:54:06;101920.66;;;27.05;30.90
72794;BME280;63436;26.334;50.194;2022-11-20T07:56:31;101922.84;;;26.38;31.29
72794;BME280;63436;26.334;50.194;2022-11-20T07:58:56;101921.54;;;26.36;31.50
72794;BME280;63436;26.334;50.194;2022-11-20T08:01:22;101912.82;;;26.12;31.73
72794;BME280;63436;26.334;50.194;2022-11-20T08:03:47;101908.69;;;25.92;31.78
72794;BME280;63436;26.334;50.194;2022-11-20T08:06:12;101913.63;;;27.16;30.60
72794;BME280;63436;26.334;50.194;2022-11-20T08:08:38;101907.22;;;26.60;31.22
72794;BME280;63436;26.334;50.194;2022-11-20T08:11:03;101899.40;;;26.63;31.51
72794;BME280;63436;26.334;50.194;2022-11-20T08:13:29;101896.37;;;27.15;30.20
72794;BME280;63436;26.334;50.194;2022-11-20T08:15:55;101890.30;;;27.81;29.41
72794;BME280;63436;26.334;50.194;2022-11-20T08:18:20;101879.28;;;27.34;29.86
72794;BME280;63436;26.334;50.194;2022-11-20T08:20:46;101886.53;;;26.51;30.43
72794;BME280;63436;26.334;50.194;2022-11-20T08:23:12;101881.03;;;27.11;29.90
72794;BME280;63436;26.334;50.194;2022-11-20T08:25:38;101875.71;;;27.30;29.65
72794;BME280;63436;26.334;50.194;2022-11-20T08:28:04;101863.71;;;27.14;29.48
72794;BME280;63436;26.334;50.194;2022-11-20T08:30:28;101864.79;;;27.43;28.85
72794;BME280;63436;26.334;50.194;2022-11-20T08:32:54;101858.81;;;27.47;28.21
72794;BME280;63436;26.334;50.194;2022-11-20T08:35:18;101867.27;;;26.66;28.74
72794;BME280;63436;26.334;50.194;2022-11-20T08:37:46;101857.26;;;27.30;27.55
72794;BME280;63436;26.334;50.194;2022-11-20T08:40:11;101859.27;;;26.82;29.17
72794;BME280;63436;26.334;50.194;2022-11-20T08:42:35;101857.38;;;26.58;28.88
72794;BME280;63436;26.334;50.194;2022-11-20T08:45:00;101855.17;;;26.86;27.95
72794;BME280;63436;26.334;50.194;2022-11-20T08:47:26;101851.17;;;26.65;28.69
72794;BME280;63436;26.334;50.194;2022-11-20T08:49:52;101843.51;;;27.32;27.78
72794;BME280;63436;26.334;50.194;2022-11-20T08:52:17;101842.14;;;26.59;27.67
72794;BME280;63436;26.334;50.194;2022-11-20T08:54:43;101844.03;;;26.53;27.89
72794;BME280;63436;26.334;50.194;2022-11-20T08:57:08;101829.67;;;27.54;27.61
72794;BME280;63436;26.334;50.194;2022-11-20T08:59:34;101833.32;;;26.60;28.45
72794;BME280;63436;26.334;50.194;2022-11-20T09:01:59;101832.22;;;26.18;27.98
72794;BME280;63436;26.334;50.194;2022-11-20T09:04:25;101822.16;;;27.03;27.78
72794;BME280;63436;26.334;50.194;2022-11-20T09:06:50;101813.96;;;28.05;25.96
72794;BME280;63436;26.334;50.194;2022-11-20T09:09:15;101812.32;;;27.06;27.28
72794;BME280;63436;26.334;50.194;2022-11-20T09:11:41;101815.50;;;27.46;27.30
72794;BME280;63436;26.334;50.194;2022-11-20T09:14:06;101816.15;;;27.04;27.35
72794;BME280;63436;26.334;50.194;2022-11-20T09:16:32;101811.34;;;28.62;25.74
72794;BME280;63436;26.334;50.194;2022-11-20T09:18:57;101801.55;;;26.78;28.29
72794;BME280;63436;26.334;50.194;2022-11-20T09:21:22;101802.71;;;28.41;26.49
72794;BME280;63436;26.334;50.194;2022-11-20T09:23:48;101795.78;;;26.10;28.35
72794;BME280;63436;26.334;50.194;2022-11-20T09:26:14;101785.23;;;27.54;26.75
72794;BME280;63436;26.334;50.194;2022-11-20T09:28:38;101791.84;;;27.25;26.79
72794;BME280;63436;26.334;50.194;2022-11-20T09:31:05;101785.69;;;26.32;27.43
72794;BME280;63436;26.334;50.194;2022-11-20T09:33:29;101783.85;;;28.81;24.81
72794;BME280;63436;26.334;50.194;2022-11-20T09:35:54;101781.29;;;30.33;24.08
72794;BME280;63436;26.334;50.194;2022-11-20T09:38:20;101776.58;;;29.83;24.04
72794;BME280;63436;26.334;50.194;2022-11-20T09:40:51;101770.25;;;28.07;25.75
72794;BME280;63436;26.334;50.194;2022-11-20T09:43:14;101768.26;;;28.72;25.80
72794;BME280;63436;26.334;50.194;2022-11-20T09:45:46;101771.35;;;27.42;26.74
72794;BME280;63436;26.334;50.194;2022-11-20T09:48:14;101765.67;;;27.85;26.16
72794;BME280;63436;26.334;50.194;2022-11-20T09:50:31;101766.03;;;29.03;25.29
72794;BME280;63436;26.334;50.194;2022-11-20T09:53:04;101767.19;;;28.46;26.53
72794;BME280;63436;26.334;50.194;2022-11-20T09:55:18;101759.99;;;28.28;26.61
72794;BME280;63436;26.334;50.194;2022-11-20T09:57:45;101758.11;;;28.74;27.43
72794;BME280;63436;26.334;50.194;2022-11-20T10:00:12;101754.44;;;28.68;27.25
72794;BME280;63436;26.334;50.194;2022-11-20T10:02:39;101755.84;;;28.72;27.18
72794;BME280;63436;26.334;50.194;2022-11-20T10:05:04;101754.27;;;28.38;27.56
72794;BME280;63436;26.334;50.194;2022-11-20T10:07:32;101751.55;;;28.42;27.81
72794;BME280;63436;26.334;50.194;2022-11-20T10:09:53;101750.73;;;28.55;27.73
72794;BME280;63436;26.334;50.194;2022-11-20T10:12:22;101747.02;;;28.93;27.26
72794;BME280;63436;26.334;50.194;2022-11-20T10:14:52;101745.00;;;27.98;28.25
72794;BME280;63436;26.334;50.194;2022-11-20T10:17:16;101745.56;;;29.43;25.70
72794;BME280;63436;26.334;50.194;2022-11-20T10:19:44;101739.25;;;28.52;26.98
72794;BME280;63436;26.334;50.194;2022-11-20T10:22:03;101738.17;;;26.77;28.88
72794;BME280;63436;26.334;50.194;2022-11-20T10:24:39;101734.75;;;27.59;27.78
72794;BME280;63436;26.334;50.194;2022-11-20T10:26:52;101735.36;;;27.25;28.36
72794;BME280;63436;26.334;50.194;2022-11-20T10:29:16;101734.27;;;28.08;26.81
72794;BME280;63436;26.334;50.194;2022-11-20T10:31:41;101727.80;;;27.43;28.06
72794;BME280;63436;26.334;50.194;2022-11-20T10:34:07;101729.36;;;28.89;26.49
72794;BME280;63436;26.334;50.194;2022-11-20T10:36:34;101734.33;;;26.83;28.66
72794;BME280;63436;26.334;50.194;2022-11-20T10:38:58;101726.41;;;27.25;28.66
72794;BME280;63436;26.334;50.194;2022-11-20T10:41:25;101727.04;;;28.29;27.49
72794;BME280;63436;26.334;50.194;2022-11-20T10:43:48;101725.60;;;27.39;28.54
72794;BME280;63436;26.334;50.194;2022-11-20T10:46:15;101727.26;;;26.21;30.34
72794;BME280;63436;26.334;50.194;2022-11-20T10:48:38;101722.08;;;28.20;28.88
72794;BME280;63436;26.334;50.194;2022-11-20T10:51:21;101726.08;;;28.68;27.31
72794;BME280;63436;26.334;50.194;2022-11-20T10:53:42;101721.51;;;26.90;28.87
72794;BME280;63436;26.334;50.194;2022-11-20T10:55:58;101719.27;;;27.50;27.94
72794;BME280;63436;26.334;50.194;2022-11-20T10:58:25;101713.78;;;28.29;27.79
72794;BME280;63436;26.334;50.194;2022-11-20T11:00:45;101713.66;;;28.68;27.56
72794;BME280;63436;26.334;50.194;2022-11-20T11:03:20;101708.49;;;27.69;28.62
72794;BME280;63436;26.334;50.194;2022-11-20T11:05:39;101713.14;;;26.86;29.43
72794;BME280;63436;26.334;50.194;2022-11-20T11:08:02;101713.38;;;28.94;27.41
72794;BME280;63436;26.334;50.194;2022-11-20T11:10:34;101704.34;;;27.14;29.51
72794;BME280;63436;26.334;50.194;2022-11-20T11:12:52;101701.73;;;27.71;28.68
72794;BME280;63436;26.334;50.194;2022-11-20T11:15:26;101699.66;;;28.22;27.76
72794;BME280;63436;26.334;50.194;2022-11-20T11:17:47;101702.16;;;27.00;28.77
72794;BME280;63436;26.334;50.194;2022-11-20T11:20:15;101701.48;;;26.57;28.33
72794;BME280;63436;26.334;50.194;2022-11-20T11:22:42;101701.60;;;27.92;27.29
72794;BME280;63436;26.334;50.194;2022-11-20T11:25:00;101701.47;;;26.12;28.70
72794;BME280;63436;26.334;50.194;2022-11-20T11:27:25;101700.22;;;27.56;26.89
72794;BME280;63436;26.334;50.194;2022-11-20T11:30:03;101702.75;;;27.00;26.23
72794;BME280;63436;26.334;50.194;2022-11-20T11:32:18;101700.12;;;26.79;26.19
72794;BME280;63436;26.334;50.194;2022-11-20T11:34:41;101695.59;;;27.66;24.18
72794;BME280;63436;26.334;50.194;2022-11-20T11:37:13;101703.80;;;27.21;24.06
72794;BME280;63436;26.334;50.194;2022-11-20T11:39:33;101701.45;;;28.22;23.43
72794;BME280;63436;26.334;50.194;2022-11-20T11:41:57;101702.53;;;28.95;22.84
72794;BME280;63436;26.334;50.194;2022-11-20T11:44:26;101704.86;;;29.43;22.02
72794;BME280;63436;26.334;50.194;2022-11-20T11:46:53;101704.25;;;26.04;25.55
72794;BME280;63436;26.334;50.194;2022-11-20T11:49:17;101699.18;;;28.87;22.62
72794;BME280;63436;26.334;50.194;2022-11-20T11:51:45;101703.49;;;26.31;24.98
72794;BME280;63436;26.334;50.194;2022-11-20T11:54:10;101700.40;;;27.42;24.11
72794;BME280;63436;26.334;50.194;2022-11-20T11:56:30;101701.21;;;27.65;23.18
72794;BME280;63436;26.334;50.194;2022-11-20T11:58:58;101701.91;;;26.99;23.74
72794;BME280;63436;26.334;50.194;2022-11-20T12:01:27;101702.36;;;27.21;23.50
72794;BME280;63436;26.334;50.194;2022-11-20T12:03:53;101705.44;;;27.28;23.30
72794;BME280;63436;26.334;50.194;2022-11-20T12:06:14;101703.76;;;25.76;24.24
72794;BME280;63436;26.334;50.194;2022-11-20T12:08:44;101704.70;;;26.04;23.37
72794;BME280;63436;26.334;50.194;2022-11-20T12:11:05;101703.52;;;25.26;24.36
72794;BME280;63436;26.334;50.194;2022-11-20T12:13:39;101704.01;;;27.62;22.53
72794;BME280;63436;26.334;50.194;2022-11-20T12:15:53;101703.55;;;28.30;22.37
72794;BME280;63436;26.334;50.194;2022-11-20T12:18:20;101699.30;;;25.66;24.09
72794;BME280;63436;26.334;50.194;2022-11-20T12:20:52;101703.59;;;25.99;23.48
72794;BME280;63436;26.334;50.194;2022-11-20T12:23:14;101704.94;;;27.37;22.10
72794;BME280;63436;26.334;50.194;2022-11-20T12:25:36;101703.97;;;26.33;23.34
72794;BME280;63436;26.334;50.194;2022-11-20T12:30:25;101697.95;;;26.97;23.17
72794;BME280;63436;26.334;50.194;2022-11-20T12:35:31;101695.94;;;25.84;23.50